CheckWX is a tool to help pilots better visualize weather data.  It is not intended as a substitute for an official pre-flight weather briefing.

03:38:32 UTC

KIWA METAR
Phoenix-Mesa Gateway Airport
Phoenix, Arizona, USA
Current

44 mins ago

KIWA 200255Z 17008KT 10SM VCSH SCT100 17/14 A2973
Observed
Nov-20 @ 02:55 UTC
Wind
  • 170° at 8 KTS
Visibility
10 SM
Flight Rules
VFR
Cloud Levels
  • Scattered at 10,000' AGL
Temperature
17°C / 63°F
Dewpoint
14°C / 57°F
Humidity
83%
Altimeter
29.73" Hg
Pressure
1006.82 hPa
Previous

2 hours ago

KIWA 200155Z 17006KT 10SM VCTS OVC090 17/14 A2976
Observed
Nov-20 @ 01:55 UTC
Wind
  • 170° at 6 KTS
Visibility
10 SM
Flight Rules
VFR
Conditions
Area Thunderstorm
Cloud Levels
  • Overcast at 9,000' AGL
Temperature
17°C / 63°F
Dewpoint
14°C / 57°F
Humidity
83%
Altimeter
29.76" Hg
Pressure
1007.82 hPa
Previous

3 hours ago

KIWA 200055Z 08017KT 7SM RA TS SCT070 BKN100 OVC120 15/14 A2973 RMK LTG ICCG. TS BEGAN 0031Z.
Observed
Nov-20 @ 00:55 UTC
Wind
  • 080° at 17 KTS
Visibility
7 SM
Flight Rules
VFR
Conditions
Rain, Thunderstorm
Cloud Levels
  • Scattered at 7,000' AGL
  • Broken at 10,000' AGL
  • Overcast at 12,000' AGL
Temperature
15°C / 59°F
Dewpoint
14°C / 57°F
Humidity
94%
Altimeter
29.73" Hg
Pressure
1006.82 hPa